createdAt,value
2018-10-07T00:00:26.592Z,73.59
2018-10-07T00:02:55.603Z,74.30
2018-10-07T00:05:24.820Z,74.16
2018-10-07T00:07:53.970Z,75.26
2018-10-07T00:10:23.042Z,75.56
2018-10-07T00:12:51.716Z,75.77
2018-10-07T00:15:20.685Z,76.23
2018-10-07T00:17:49.378Z,76.46
2018-10-07T00:20:18.234Z,77.20
2018-10-07T00:22:47.085Z,76.28
2018-10-07T00:25:15.869Z,76.16
2018-10-07T00:27:44.826Z,75.32
2018-10-07T00:30:13.624Z,75.50
2018-10-07T00:32:42.452Z,75.37
2018-10-07T00:35:11.156Z,75.10
2018-10-07T00:37:40.026Z,75.08
2018-10-07T00:40:08.852Z,75.04
2018-10-07T00:42:37.569Z,74.96
2018-10-07T00:45:06.405Z,74.86
2018-10-07T00:47:35.255Z,74.77
2018-10-07T00:50:04.092Z,74.60
2018-10-07T00:52:33.108Z,74.67
2018-10-07T00:55:01.931Z,74.47
2018-10-07T00:57:30.983Z,74.49
2018-10-07T00:59:59.803Z,74.41
2018-10-07T01:02:28.595Z,74.21
2018-10-07T01:04:57.447Z,73.88
2018-10-07T01:07:27.309Z,74.13
2018-10-07T01:09:56.125Z,74.05
2018-10-07T01:12:25.002Z,73.97
2018-10-07T01:14:53.845Z,73.86
2018-10-07T01:17:22.737Z,74.28
2018-10-07T01:19:51.505Z,74.42
2018-10-07T01:22:20.613Z,74.05
2018-10-07T01:24:49.548Z,74.20
2018-10-07T01:27:18.462Z,73.94
2018-10-07T01:29:47.295Z,73.82
2018-10-07T01:32:16.021Z,73.80
2018-10-07T01:34:44.785Z,73.46
2018-10-07T01:37:13.562Z,73.48
2018-10-07T01:39:42.425Z,74.29
2018-10-07T01:42:11.156Z,75.01
2018-10-07T01:44:39.986Z,75.11
2018-10-07T01:47:08.826Z,75.71
2018-10-07T01:49:37.672Z,75.58
2018-10-07T01:52:06.434Z,75.21
2018-10-07T01:54:35.357Z,75.33
2018-10-07T01:57:04.081Z,75.10
2018-10-07T01:59:33.135Z,75.16
2018-10-07T02:02:01.817Z,74.98
2018-10-07T02:04:30.735Z,75.19
2018-10-07T02:06:59.699Z,74.92
2018-10-07T02:09:28.549Z,75.01
2018-10-07T02:11:57.421Z,74.78
2018-10-07T02:14:26.243Z,74.90
2018-10-07T02:16:55.276Z,74.76
2018-10-07T02:19:24.206Z,74.60
2018-10-07T02:21:52.930Z,74.76
2018-10-07T02:24:21.772Z,74.73
2018-10-07T02:26:50.471Z,74.99
2018-10-07T02:29:19.223Z,75.47
2018-10-07T02:31:48.041Z,75.88
2018-10-07T02:34:16.733Z,75.43
2018-10-07T02:36:45.537Z,75.39
2018-10-07T02:39:14.381Z,75.27
2018-10-07T02:41:43.058Z,75.27
2018-10-07T02:44:11.943Z,75.00
2018-10-07T02:46:40.604Z,75.16
2018-10-07T02:49:09.467Z,74.94
2018-10-07T02:51:38.233Z,74.94
2018-10-07T02:54:07.014Z,74.84
2018-10-07T02:56:35.802Z,74.92
2018-10-07T02:59:04.602Z,74.91
2018-10-07T03:01:33.515Z,75.38
2018-10-07T03:04:02.378Z,76.38
2018-10-07T03:06:31.154Z,76.24
2018-10-07T03:08:59.987Z,75.79
2018-10-07T03:11:28.697Z,75.56
2018-10-07T03:13:57.521Z,75.44
2018-10-07T03:16:26.345Z,75.28
2018-10-07T03:18:55.045Z,75.41
2018-10-07T03:21:23.810Z,76.02
2018-10-07T03:23:53.066Z,76.53
2018-10-07T03:26:21.786Z,77.46
2018-10-07T03:28:50.640Z,77.60
2018-10-07T03:31:19.451Z,77.52
2018-10-07T03:33:48.399Z,78.55
2018-10-07T03:36:17.269Z,79.00
2018-10-07T03:38:46.039Z,78.66
2018-10-07T03:41:14.869Z,79.27
2018-10-07T03:43:43.681Z,79.52
2018-10-07T03:46:12.461Z,79.10
2018-10-07T03:48:41.281Z,78.61
2018-10-07T03:51:09.952Z,78.28
2018-10-07T03:53:38.786Z,77.91
2018-10-07T03:56:07.718Z,77.69
2018-10-07T03:58:36.550Z,78.04
2018-10-07T04:01:05.290Z,77.74
2018-10-07T04:03:33.997Z,77.32
2018-10-07T04:06:02.777Z,77.03
2018-10-07T04:08:31.751Z,77.07
2018-10-07T04:11:00.419Z,76.97
2018-10-07T04:13:29.115Z,76.97
2018-10-07T04:15:57.825Z,76.83
2018-10-07T04:18:26.647Z,76.69
2018-10-07T04:20:55.541Z,76.37
2018-10-07T04:23:24.322Z,76.43
2018-10-07T04:25:53.073Z,76.50
2018-10-07T04:28:21.993Z,76.39
2018-10-07T04:30:50.850Z,76.24
2018-10-07T04:33:19.644Z,76.78
2018-10-07T04:35:48.353Z,76.96
2018-10-07T04:38:17.141Z,77.14
2018-10-07T04:40:46.198Z,76.99
2018-10-07T04:43:15.106Z,76.95
2018-10-07T04:45:43.937Z,77.61
2018-10-07T04:48:12.736Z,77.43
2018-10-07T04:50:41.673Z,77.34
2018-10-07T04:53:10.488Z,77.28
2018-10-07T04:55:39.201Z,77.64
2018-10-07T04:58:07.989Z,77.75
2018-10-07T05:00:36.717Z,77.95
2018-10-07T05:03:05.513Z,78.07
2018-10-07T05:05:34.151Z,78.62
2018-10-07T05:08:02.813Z,78.94
2018-10-07T05:10:49.813Z,78.79
2018-10-07T05:13:21.367Z,78.84
2018-10-07T05:15:52.683Z,79.09
2018-10-07T05:18:21.542Z,78.88
2018-10-07T05:20:50.532Z,79.26
2018-10-07T05:23:19.295Z,79.42
2018-10-07T05:25:48.203Z,79.06
2018-10-07T05:28:17.412Z,79.43
2018-10-07T05:30:46.350Z,79.21
2018-10-07T05:33:15.008Z,79.70
2018-10-07T05:35:43.906Z,79.25
2018-10-07T05:38:12.715Z,79.04
2018-10-07T05:40:41.422Z,79.29
2018-10-07T05:43:10.113Z,79.21
2018-10-07T05:45:38.837Z,78.99
2018-10-07T05:48:07.549Z,78.82
2018-10-07T05:50:37.769Z,78.80
2018-10-07T05:53:06.821Z,79.08
2018-10-07T05:55:35.759Z,78.83
2018-10-07T05:58:06.004Z,79.06
2018-10-07T06:00:36.603Z,78.55
2018-10-07T06:05:17.576Z,78.11
2018-10-07T06:07:46.225Z,78.23
2018-10-07T06:10:16.982Z,78.36
2018-10-07T06:12:45.781Z,77.81
2018-10-07T06:15:32.771Z,77.60
2018-10-07T06:18:01.480Z,76.55
2018-10-07T06:20:31.112Z,76.63
2018-10-07T06:22:59.964Z,75.47
2018-10-07T06:25:28.789Z,75.37
2018-10-07T06:27:58.232Z,75.02
2018-10-07T06:30:27.032Z,74.92
2018-10-07T06:32:55.853Z,74.90
2018-10-07T06:35:25.437Z,73.71
2018-10-07T06:37:54.801Z,73.50
2018-10-07T06:40:23.672Z,73.41
2018-10-07T06:42:52.566Z,73.38
2018-10-07T06:45:21.311Z,74.51
2018-10-07T06:47:50.097Z,73.99
2018-10-07T06:50:18.867Z,73.10
2018-10-07T06:52:47.568Z,73.12
2018-10-07T06:55:16.239Z,72.56
2018-10-07T06:57:44.977Z,71.76
2018-10-07T07:00:13.777Z,71.02
2018-10-07T07:02:42.545Z,71.39
2018-10-07T07:05:11.341Z,71.20
2018-10-07T07:07:40.170Z,70.54
2018-10-07T07:10:08.957Z,69.68
2018-10-07T07:12:37.813Z,69.86
2018-10-07T07:15:06.603Z,69.06
2018-10-07T07:17:35.487Z,70.69
2018-10-07T07:20:04.297Z,71.17
2018-10-07T07:22:33.085Z,70.52
2018-10-07T07:25:01.743Z,70.22
2018-10-07T07:27:30.576Z,69.91
2018-10-07T07:29:59.266Z,69.37
2018-10-07T07:32:28.067Z,70.86
2018-10-07T07:34:56.921Z,71.44
2018-10-07T07:37:25.669Z,72.58
2018-10-07T07:39:54.440Z,72.86
2018-10-07T07:42:23.406Z,72.65
2018-10-07T07:44:52.140Z,72.08
2018-10-07T07:47:21.120Z,71.42
2018-10-07T07:49:49.913Z,71.59
2018-10-07T07:52:19.485Z,70.96
2018-10-07T07:54:48.823Z,71.94
2018-10-07T07:57:17.440Z,71.84
2018-10-07T07:59:46.219Z,71.28
2018-10-07T08:02:15.155Z,71.44
2018-10-07T08:04:43.699Z,71.52
2018-10-07T08:07:12.405Z,71.27
2018-10-07T08:09:41.188Z,73.27
2018-10-07T08:12:09.992Z,73.58
2018-10-07T08:14:38.776Z,75.11
2018-10-07T08:17:07.460Z,75.25
2018-10-07T08:19:36.145Z,74.66
2018-10-07T08:22:04.864Z,75.41
2018-10-07T08:24:33.687Z,75.07
2018-10-07T08:27:02.489Z,74.47
2018-10-07T08:29:31.257Z,73.83
2018-10-07T08:32:00.114Z,74.38
2018-10-07T08:34:28.713Z,73.46
2018-10-07T08:36:57.481Z,74.26
2018-10-07T08:39:26.298Z,74.67
2018-10-07T08:41:55.074Z,74.59
2018-10-07T08:44:23.867Z,75.00
2018-10-07T08:46:52.534Z,75.13
2018-10-07T08:49:21.201Z,75.60
2018-10-07T08:51:50.039Z,75.10
2018-10-07T08:54:18.796Z,75.37
2018-10-07T08:56:47.586Z,75.63
2018-10-07T08:59:16.339Z,76.20
2018-10-07T09:01:45.029Z,76.23
2018-10-07T09:04:13.792Z,76.85
2018-10-07T09:06:42.466Z,76.39
2018-10-07T09:09:11.965Z,75.42
2018-10-07T09:11:41.225Z,76.12
2018-10-07T09:14:10.132Z,75.89
2018-10-07T09:16:38.963Z,75.04
2018-10-07T09:19:07.675Z,75.16
2018-10-07T09:21:36.340Z,75.09
2018-10-07T09:24:05.268Z,75.44
2018-10-07T09:26:34.010Z,76.01
2018-10-07T09:29:02.901Z,76.77
2018-10-07T09:31:31.708Z,76.17
2018-10-07T09:34:00.299Z,76.54
2018-10-07T09:36:28.978Z,76.45
2018-10-07T09:38:57.707Z,76.98
2018-10-07T09:41:26.394Z,76.47
2018-10-07T09:43:55.217Z,76.45
2018-10-07T09:46:23.911Z,76.75
2018-10-07T09:48:52.808Z,76.12
2018-10-07T09:51:21.616Z,76.03
2018-10-07T09:53:50.481Z,75.25
2018-10-07T09:56:19.421Z,74.62
2018-10-07T09:58:48.144Z,74.21
2018-10-07T10:01:16.882Z,74.46
2018-10-07T10:03:45.640Z,75.08
2018-10-07T10:06:16.235Z,75.23
2018-10-07T10:08:45.124Z,75.43
2018-10-07T10:11:13.900Z,75.21
2018-10-07T10:13:42.564Z,75.49
2018-10-07T10:16:11.176Z,74.67
2018-10-07T10:18:47.544Z,74.24
2018-10-07T10:21:23.645Z,73.25
2018-10-07T10:24:02.716Z,73.40
2018-10-07T10:29:03.111Z,72.49
2018-10-07T10:31:40.565Z,70.86
2018-10-07T10:34:23.679Z,70.27
2018-10-07T10:37:01.550Z,68.55
2018-10-07T10:39:47.504Z,67.78
2018-10-07T10:42:24.517Z,66.43
2018-10-07T10:45:02.213Z,66.50
2018-10-07T10:47:39.992Z,65.78
2018-10-07T10:52:21.306Z,65.84
2018-10-07T10:56:00.045Z,63.87
2018-10-07T10:59:06.268Z,62.33
2018-10-07T11:03:58.069Z,63.20
2018-10-07T11:06:38.338Z,63.24
2018-10-07T11:10:31.217Z,61.89
2018-10-07T11:13:06.578Z,61.18
2018-10-07T11:15:45.487Z,59.22
2018-10-07T11:18:20.228Z,57.47
2018-10-07T11:23:35.805Z,57.25
2018-10-07T11:26:10.049Z,54.53
2018-10-07T11:28:47.582Z,51.17
2018-10-07T11:32:20.981Z,48.82
2018-10-07T11:35:00.600Z,50.20
2018-10-07T11:37:43.590Z,51.82
2018-10-07T11:40:28.174Z,55.61
2018-10-07T11:45:13.557Z,58.55
2018-10-07T11:49:57.054Z,61.60
2018-10-07T11:53:02.250Z,63.00
2018-10-07T11:55:30.945Z,63.29
2018-10-07T11:57:59.685Z,63.29
2018-10-07T12:00:28.462Z,64.60
2018-10-07T12:02:57.187Z,65.65
2018-10-07T12:05:25.742Z,65.32
2018-10-07T12:07:54.395Z,65.12
2018-10-07T12:10:23.147Z,65.68
2018-10-07T12:12:51.828Z,65.57
2018-10-07T12:15:20.697Z,64.69
2018-10-07T12:17:49.504Z,64.27
2018-10-07T12:20:18.336Z,63.88
2018-10-07T12:22:47.179Z,64.33
2018-10-07T12:25:16.005Z,63.34
2018-10-07T12:27:44.841Z,62.37
2018-10-07T12:30:13.537Z,61.80
2018-10-07T12:32:42.169Z,61.22
2018-10-07T12:35:10.853Z,61.15
2018-10-07T12:37:39.683Z,61.25
2018-10-07T12:40:08.364Z,60.55
2018-10-07T12:42:37.205Z,59.21
2018-10-07T12:45:05.795Z,58.33
2018-10-07T12:47:34.405Z,58.02
2018-10-07T12:50:03.097Z,58.50
2018-10-07T12:52:31.977Z,58.32
2018-10-07T12:55:00.652Z,57.38
2018-10-07T12:57:29.581Z,58.02
2018-10-07T12:59:58.275Z,59.93
2018-10-07T13:02:26.977Z,59.00
2018-10-07T13:04:55.746Z,59.64
2018-10-07T13:07:24.530Z,61.62
2018-10-07T13:09:53.357Z,62.41
2018-10-07T13:12:21.933Z,61.81
2018-10-07T13:14:50.837Z,61.99
2018-10-07T13:17:19.522Z,61.65
2018-10-07T13:21:12.574Z,63.15
2018-10-07T13:23:41.260Z,61.25
2018-10-07T13:26:09.954Z,60.76
2018-10-07T13:28:39.254Z,60.17
2018-10-07T13:31:08.317Z,59.41
2018-10-07T13:33:37.310Z,59.49
2018-10-07T13:36:06.077Z,60.28
2018-10-07T13:38:34.869Z,60.30
2018-10-07T13:41:03.621Z,60.92
2018-10-07T13:43:32.400Z,61.48
2018-10-07T13:46:01.100Z,63.77
2018-10-07T13:48:29.761Z,65.13
2018-10-07T13:50:58.576Z,66.15
2018-10-07T13:53:27.326Z,66.90
2018-10-07T13:55:55.858Z,66.99
2018-10-07T13:58:24.648Z,67.12
2018-10-07T14:00:53.452Z,67.17
2018-10-07T14:03:22.211Z,67.71
2018-10-07T14:05:50.904Z,68.97
2018-10-07T14:08:19.697Z,68.92
2018-10-07T14:10:48.519Z,69.42
2018-10-07T14:13:17.325Z,69.22
2018-10-07T14:15:46.117Z,69.69
2018-10-07T14:18:14.797Z,69.74
2018-10-07T14:20:43.503Z,69.64
2018-10-07T14:23:12.275Z,70.15
2018-10-07T14:25:40.989Z,70.58
2018-10-07T14:28:10.805Z,71.21
2018-10-07T14:30:39.388Z,71.06
2018-10-07T14:33:08.197Z,70.79
2018-10-07T14:35:37.029Z,70.00
2018-10-07T14:38:05.903Z,70.71
2018-10-07T14:40:34.713Z,69.88
2018-10-07T14:43:03.549Z,69.62
2018-10-07T14:45:32.430Z,69.91
2018-10-07T14:48:01.251Z,68.52
2018-10-07T14:50:30.098Z,67.70
2018-10-07T14:52:59.105Z,67.70
2018-10-07T14:55:27.933Z,67.85
2018-10-07T14:57:56.736Z,67.64
2018-10-07T15:00:25.533Z,66.78
2018-10-07T15:02:54.160Z,66.27
2018-10-07T15:05:22.970Z,65.68
2018-10-07T15:07:51.781Z,65.63
2018-10-07T15:11:44.890Z,66.01
2018-10-07T15:14:13.453Z,67.20
2018-10-07T15:16:42.340Z,67.62
2018-10-07T15:19:11.188Z,68.74
2018-10-07T15:21:40.108Z,68.58
2018-10-07T15:24:10.301Z,68.26
2018-10-07T15:26:39.067Z,68.55
2018-10-07T15:29:07.782Z,67.95
2018-10-07T15:31:36.496Z,67.94
2018-10-07T15:34:05.166Z,67.51
2018-10-07T15:36:33.889Z,68.47
2018-10-07T15:39:02.660Z,68.96
2018-10-07T15:41:31.497Z,69.87
2018-10-07T15:44:00.189Z,70.05
2018-10-07T15:46:29.290Z,70.51
2018-10-07T15:48:58.093Z,71.73
2018-10-07T15:51:27.097Z,71.75
2018-10-07T15:53:55.913Z,71.08
2018-10-07T15:56:24.806Z,70.33
2018-10-07T15:58:53.784Z,70.89
2018-10-07T16:01:22.626Z,71.48
2018-10-07T16:03:51.565Z,72.16
2018-10-07T16:06:20.343Z,73.04
2018-10-07T16:08:49.274Z,73.70
2018-10-07T16:11:17.993Z,73.96
2018-10-07T16:13:46.832Z,74.99
2018-10-07T16:16:15.681Z,75.85
2018-10-07T16:18:44.585Z,76.94
2018-10-07T16:21:13.447Z,77.79
2018-10-07T16:23:42.344Z,78.52
2018-10-07T16:26:11.164Z,78.12
2018-10-07T16:28:40.117Z,77.59
2018-10-07T16:31:09.797Z,76.98
2018-10-07T16:33:38.668Z,77.33
2018-10-07T16:36:07.465Z,77.16
2018-10-07T16:38:36.366Z,78.00
2018-10-07T16:41:05.126Z,78.40
2018-10-07T16:43:33.976Z,78.32
2018-10-07T16:46:03.140Z,77.95
2018-10-07T16:48:31.912Z,78.26
2018-10-07T16:51:00.590Z,79.09
2018-10-07T16:53:29.340Z,78.73
2018-10-07T16:55:57.921Z,78.22
2018-10-07T16:58:26.806Z,78.25
2018-10-07T17:00:55.514Z,78.42
2018-10-07T17:03:24.390Z,78.49
2018-10-07T17:05:54.327Z,78.60
2018-10-07T17:08:23.183Z,78.28
2018-10-07T17:10:52.039Z,78.50
2018-10-07T17:13:20.832Z,78.74
2018-10-07T17:15:49.392Z,78.77
2018-10-07T17:18:18.228Z,79.09
2018-10-07T17:20:47.023Z,79.12
2018-10-07T17:23:15.600Z,79.15
2018-10-07T17:25:44.287Z,79.73
2018-10-07T17:28:12.882Z,79.45
2018-10-07T17:30:41.676Z,80.42
2018-10-07T17:33:10.488Z,80.31
2018-10-07T17:35:39.320Z,80.45
2018-10-07T17:38:08.291Z,81.27
2018-10-07T17:40:37.029Z,81.48
2018-10-07T17:43:05.820Z,81.28
2018-10-07T17:45:34.498Z,80.73
2018-10-07T17:48:06.499Z,80.56
2018-10-07T17:50:35.296Z,80.71
2018-10-07T17:53:04.204Z,80.87
2018-10-07T17:55:32.872Z,81.33
2018-10-07T17:58:01.557Z,81.41
2018-10-07T18:00:30.249Z,81.53
2018-10-07T18:02:59.176Z,81.67
2018-10-07T18:05:27.798Z,81.69
2018-10-07T18:07:56.517Z,81.99
2018-10-07T18:10:25.093Z,82.36
2018-10-07T18:12:53.748Z,83.06
2018-10-07T18:15:22.464Z,83.18
2018-10-07T18:17:51.287Z,83.54
2018-10-07T18:20:20.035Z,83.14
2018-10-07T18:22:48.736Z,83.56
2018-10-07T18:25:17.860Z,83.72
2018-10-07T18:27:46.567Z,84.29
2018-10-07T18:30:15.291Z,84.41
2018-10-07T18:32:44.099Z,84.16
2018-10-07T18:35:12.732Z,84.48
2018-10-07T18:37:41.556Z,84.66
2018-10-07T18:40:10.335Z,84.35
2018-10-07T18:42:39.002Z,83.80
2018-10-07T18:45:07.648Z,84.20
2018-10-07T18:47:36.433Z,83.81
2018-10-07T18:50:05.129Z,84.07
2018-10-07T18:52:33.921Z,83.99
2018-10-07T18:55:02.753Z,84.08
2018-10-07T18:57:31.556Z,83.84
2018-10-07T19:00:00.397Z,83.79
2018-10-07T19:02:29.235Z,83.61
2018-10-07T19:04:58.009Z,83.60
2018-10-07T19:07:26.841Z,83.32
2018-10-07T19:09:55.573Z,83.37
2018-10-07T19:12:24.483Z,83.95
2018-10-07T19:14:53.317Z,83.34
2018-10-07T19:17:22.142Z,83.74
2018-10-07T19:19:51.045Z,84.04
2018-10-07T19:22:19.745Z,83.54
2018-10-07T19:24:48.703Z,83.55
2018-10-07T19:27:17.428Z,83.87
2018-10-07T19:29:46.229Z,83.84
2018-10-07T19:32:15.075Z,83.42
2018-10-07T19:34:43.933Z,84.12
2018-10-07T19:37:12.981Z,84.24
2018-10-07T19:39:41.812Z,84.45
2018-10-07T19:42:10.518Z,84.69
2018-10-07T19:44:39.360Z,84.95
2018-10-07T19:47:08.117Z,86.34
2018-10-07T19:49:37.092Z,86.96
2018-10-07T19:52:05.789Z,87.32
2018-10-07T19:54:34.606Z,88.99
2018-10-07T19:57:03.468Z,88.36
2018-10-07T19:59:32.233Z,88.43
2018-10-07T20:02:00.942Z,87.97
2018-10-07T20:04:29.664Z,87.44
2018-10-07T20:06:58.504Z,86.60
2018-10-07T20:09:27.328Z,86.09
2018-10-07T20:11:56.189Z,85.23
2018-10-07T20:14:24.898Z,84.31
2018-10-07T20:16:53.655Z,84.20
2018-10-07T20:19:22.564Z,84.62
2018-10-07T20:21:51.413Z,84.20
2018-10-07T20:24:20.216Z,83.73
2018-10-07T20:26:48.820Z,82.91
2018-10-07T20:29:17.653Z,83.54
2018-10-07T20:31:46.485Z,83.06
2018-10-07T20:34:17.899Z,82.73
2018-10-07T20:36:46.877Z,82.78
2018-10-07T20:39:15.695Z,82.07
2018-10-07T20:41:44.429Z,82.33
2018-10-07T20:44:13.231Z,82.26
2018-10-07T20:46:42.085Z,82.45
2018-10-07T20:49:10.902Z,82.57
2018-10-07T20:51:40.848Z,82.83
2018-10-07T20:54:09.787Z,83.31
2018-10-07T20:56:38.626Z,82.86
2018-10-07T20:59:07.604Z,82.64
2018-10-07T21:01:36.572Z,82.44
2018-10-07T21:04:05.278Z,82.03
2018-10-07T21:06:34.223Z,81.61
2018-10-07T21:09:02.999Z,81.17
2018-10-07T21:11:31.836Z,80.52
2018-10-07T21:14:00.653Z,81.09
2018-10-07T21:16:29.499Z,81.38
2018-10-07T21:18:58.332Z,81.91
2018-10-07T21:21:27.181Z,82.00
2018-10-07T21:23:56.024Z,82.28
2018-10-07T21:26:24.869Z,81.77
2018-10-07T21:28:53.716Z,82.17
2018-10-07T21:31:22.561Z,83.22
2018-10-07T21:33:51.354Z,82.31
2018-10-07T21:36:21.166Z,82.65
2018-10-07T21:38:49.942Z,83.43
2018-10-07T21:41:18.880Z,82.96
2018-10-07T21:43:47.665Z,83.25
2018-10-07T21:46:16.476Z,83.70
2018-10-07T21:48:45.317Z,83.84
2018-10-07T21:51:14.241Z,84.75
2018-10-07T21:53:43.021Z,85.43
2018-10-07T21:56:12.946Z,85.96
2018-10-07T21:58:41.567Z,87.09
2018-10-07T22:01:10.265Z,87.59
2018-10-07T22:03:39.084Z,87.16
2018-10-07T22:06:07.861Z,86.95
2018-10-07T22:08:36.729Z,86.99
2018-10-07T22:11:05.406Z,87.09
2018-10-07T22:13:34.097Z,86.81
2018-10-07T22:16:02.839Z,86.31
2018-10-07T22:18:31.658Z,86.10
2018-10-07T22:21:00.448Z,86.10
2018-10-07T22:23:29.274Z,85.87
2018-10-07T22:25:57.951Z,85.81
2018-10-07T22:28:26.785Z,85.81
2018-10-07T22:30:55.540Z,85.94
2018-10-07T22:33:24.220Z,86.26
2018-10-07T22:35:52.773Z,86.84
2018-10-07T22:38:21.466Z,87.38
2018-10-07T22:40:50.266Z,86.78
2018-10-07T22:43:19.069Z,87.14
2018-10-07T22:45:47.653Z,87.62
2018-10-07T22:48:16.560Z,87.90
2018-10-07T22:50:45.352Z,88.07
2018-10-07T22:53:14.160Z,88.27
2018-10-07T22:55:42.829Z,88.04
2018-10-07T22:58:11.541Z,87.41
2018-10-07T23:00:40.222Z,87.11
2018-10-07T23:03:09.046Z,87.26
2018-10-07T23:05:37.868Z,87.25
2018-10-07T23:08:06.652Z,86.86
2018-10-07T23:10:35.702Z,87.06
2018-10-07T23:13:04.428Z,86.84
2018-10-07T23:15:33.284Z,86.71
2018-10-07T23:18:02.237Z,86.75
2018-10-07T23:20:31.055Z,86.62
2018-10-07T23:22:59.793Z,85.96
2018-10-07T23:25:28.573Z,85.78
2018-10-07T23:27:57.394Z,85.91
2018-10-07T23:30:25.939Z,85.37
2018-10-07T23:32:54.758Z,85.29
2018-10-07T23:35:24.517Z,84.95
2018-10-07T23:37:53.559Z,85.30
2018-10-07T23:40:22.337Z,85.13
2018-10-07T23:42:51.125Z,85.27
2018-10-07T23:45:20.005Z,85.33
2018-10-07T23:47:48.857Z,85.29
2018-10-07T23:50:17.835Z,85.13
2018-10-07T23:52:46.612Z,84.33
2018-10-07T23:55:15.313Z,84.56
2018-10-07T23:57:45.463Z,84.98
